Time;durP1;ratioP1;P1;durP2;ratioP2;P2;SDS_P1;SDS_P2;PMS_P1;PMS_P2;Temp;Humidity;BMP_temperature;BMP_pressure;BME280_temperature;BME280_humidity;BME280_pressure;Samples;Min_cycle;Max_cycle;Signal;HPM_P1;HPM_P2
2024/02/02 00:04:28;;;;;;;21.95;14.30;;;;;;;4.21;100.00;102583.56;10111338;28;20073;-72
2024/02/02 00:09:24;;;;;;;27.92;15.23;;;;;;;4.24;100.00;102588.50;10105361;28;20055;-71
2024/02/02 00:14:21;;;;;;;16.92;13.30;;;;;;;4.22;100.00;102585.19;10102094;28;20052;-71
2024/02/02 00:19:18;;;;;;;21.15;14.65;;;;;;;4.20;100.00;102592.72;10098390;28;20335;-74
2024/02/02 00:24:15;;;;;;;29.60;14.20;;;;;;;4.24;100.00;102596.63;10094196;28;20047;-72
2024/02/02 00:29:11;;;;;;;26.80;15.23;;;;;;;4.10;100.00;102608.69;10106455;28;20050;-71
2024/02/02 00:34:08;;;;;;;22.10;14.23;;;;;;;4.19;100.00;102596.50;10101002;28;20054;-71
2024/02/02 00:39:04;;;;;;;25.15;14.63;;;;;;;4.16;100.00;102605.09;10103022;28;20050;-71
2024/02/02 00:44:02;;;;;;;19.75;13.55;;;;;;;4.18;100.00;102624.63;10101998;28;20074;-71
2024/02/02 00:48:59;;;;;;;24.02;14.30;;;;;;;4.13;100.00;102627.19;10112594;28;20059;-71
2024/02/02 00:53:55;;;;;;;26.00;14.45;;;;;;;4.15;100.00;102622.38;10103558;28;20050;-71
2024/02/02 00:58:52;;;;;;;20.52;14.00;;;;;;;4.09;100.00;102623.28;10108277;28;20054;-72
2024/02/02 01:03:49;;;;;;;24.58;13.80;;;;;;;4.21;100.00;102618.75;10097507;28;20388;-71
2024/02/02 01:08:45;;;;;;;23.33;14.02;;;;;;;4.16;100.00;102607.78;10107919;28;20039;-71
2024/02/02 01:13:43;;;;;;;20.42;13.30;;;;;;;4.23;100.00;102592.28;10106539;28;20134;-73
2024/02/02 01:18:39;;;;;;;16.80;13.32;;;;;;;4.29;100.00;102585.09;10100794;28;20418;-73
2024/02/02 01:23:36;;;;;;;21.80;13.43;;;;;;;4.27;100.00;102590.78;10104068;28;20039;-73
2024/02/02 01:28:33;;;;;;;23.90;13.75;;;;;;;4.29;100.00;102585.09;10106258;28;20050;-70
2024/02/02 01:33:29;;;;;;;22.20;13.60;;;;;;;4.30;100.00;102593.00;10098658;28;20084;-71
2024/02/02 01:38:26;;;;;;;24.83;13.57;;;;;;;4.32;100.00;102588.19;10114847;28;20066;-70
2024/02/02 01:43:24;;;;;;;25.65;14.82;;;;;;;4.28;100.00;102584.28;10105733;28;20047;-71
2024/02/02 01:48:20;;;;;;;27.52;14.02;;;;;;;4.25;100.00;102573.94;10103384;28;20541;-71
2024/02/02 01:53:17;;;;;;;30.33;13.30;;;;;;;4.32;100.00;102568.41;10103151;28;20078;-72
2024/02/02 01:58:14;;;;;;;26.80;13.40;;;;;;;4.31;100.00;102559.44;10110794;28;20561;-69
2024/02/02 02:03:10;;;;;;;26.85;13.50;;;;;;;4.29;100.00;102558.03;10110327;28;20410;-73
2024/02/02 02:08:07;;;;;;;21.73;14.25;;;;;;;4.34;100.00;102571.69;10107053;28;20149;-72
2024/02/02 02:13:04;;;;;;;20.00;13.18;;;;;;;4.32;100.00;102561.13;10101660;28;20422;-71
2024/02/02 02:18:00;;;;;;;31.63;14.63;;;;;;;4.36;100.00;102565.03;10114021;28;20057;-71
2024/02/02 02:22:57;;;;;;;24.02;14.45;;;;;;;4.40;100.00;102552.66;10105968;28;20049;-71
2024/02/02 02:27:53;;;;;;;25.15;14.50;;;;;;;4.41;100.00;102534.53;10103203;28;20042;-71
2024/02/02 02:32:50;;;;;;;21.77;15.35;;;;;;;4.38;100.00;102530.38;10110132;28;20067;-70
2024/02/02 02:37:47;;;;;;;25.58;14.55;;;;;;;4.37;100.00;102512.50;10104522;28;20561;-70
2024/02/02 02:42:43;;;;;;;24.52;15.38;;;;;;;4.38;100.00;102519.53;10106414;28;20656;-70
2024/02/02 02:47:40;;;;;;;18.95;14.75;;;;;;;4.42;100.00;102509.91;10103233;28;20042;-71
2024/02/02 02:52:37;;;;;;;16.27;13.48;;;;;;;4.46;100.00;102502.16;10098295;28;20054;-71
2024/02/02 02:57:33;;;;;;;22.33;14.57;;;;;;;4.49;100.00;102509.00;10104557;28;20117;-71
2024/02/02 03:02:30;;;;;;;23.75;14.50;;;;;;;4.51;100.00;102502.28;10099952;28;20138;-71
2024/02/02 03:07:27;;;;;;;20.02;14.85;;;;;;;4.54;100.00;102512.63;10111990;28;20086;-71
2024/02/02 03:12:23;;;;;;;18.48;13.18;;;;;;;4.60;100.00;102500.06;10113757;28;20440;-71
2024/02/02 03:17:20;;;;;;;18.85;13.85;;;;;;;4.63;100.00;102494.16;10099541;28;20057;-71
2024/02/02 03:22:25;;;;;;;23.42;14.65;;;;;;;4.64;100.00;102503.94;10111295;28;20053;-73
2024/02/02 03:27:21;;;;;;;21.35;13.65;;;;;;;4.63;100.00;102488.75;10100247;28;20055;-73
2024/02/02 03:32:18;;;;;;;36.40;15.05;;;;;;;4.69;100.00;102490.53;10107052;28;20078;-74
2024/02/02 03:37:15;;;;;;;23.02;14.63;;;;;;;4.68;100.00;102480.72;10102420;28;20039;-74
2024/02/02 03:42:12;;;;;;;24.15;14.35;;;;;;;4.70;100.00;102481.31;10101400;28;20427;-73
2024/02/02 03:47:09;;;;;;;24.38;14.57;;;;;;;4.66;100.00;102466.59;10108313;28;20529;-72
2024/02/02 03:52:05;;;;;;;24.95;14.70;;;;;;;4.65;100.00;102464.94;10105292;28;20149;-71
2024/02/02 03:57:02;;;;;;;27.30;13.80;;;;;;;4.68;100.00;102453.63;10102872;28;20051;-70
2024/02/02 04:01:59;;;;;;;28.13;15.50;;;;;;;4.78;100.00;102466.59;10095242;28;20053;-73
2024/02/02 04:06:56;;;;;;;29.60;14.95;;;;;;;4.78;100.00;102451.16;10088518;28;20047;-71
2024/02/02 04:11:52;;;;;;;24.52;14.85;;;;;;;4.71;100.00;102446.91;10107605;28;20110;-73
2024/02/02 04:16:49;;;;;;;25.88;15.77;;;;;;;4.77;100.00;102446.78;10103507;28;20426;-73
2024/02/02 04:21:45;;;;;;;24.73;16.55;;;;;;;4.72;100.00;102424.19;10102341;28;20043;-72
2024/02/02 04:26:42;;;;;;;20.92;16.25;;;;;;;4.80;100.00;102418.41;10094749;28;20047;-71
2024/02/02 04:31:39;;;;;;;27.92;16.08;;;;;;;4.76;100.00;102414.53;10096863;28;20047;-72
2024/02/02 04:36:35;;;;;;;29.08;16.58;;;;;;;4.79;100.00;102412.16;10105274;28;20050;-72
2024/02/02 04:41:32;;;;;;;27.08;18.08;;;;;;;4.84;100.00;102398.72;10091497;28;20726;-72
2024/02/02 04:46:28;;;;;;;32.80;17.70;;;;;;;4.87;100.00;102391.16;10114046;28;20057;-72
2024/02/02 04:51:25;;;;;;;36.03;18.83;;;;;;;4.82;100.00;102386.47;10102151;28;20043;-71
2024/02/02 04:56:21;;;;;;;26.08;17.35;;;;;;;4.89;100.00;102367.38;10093431;28;20134;-74
2024/02/02 05:01:19;;;;;;;25.50;18.15;;;;;;;4.92;100.00;102375.00;10106733;28;21563;-71
2024/02/02 05:06:16;;;;;;;36.13;19.77;;;;;;;4.86;100.00;102365.97;10092281;28;20408;-72
2024/02/02 05:11:13;;;;;;;27.52;17.45;;;;;;;4.84;100.00;102355.34;10115623;28;20052;-71
2024/02/02 05:16:10;;;;;;;35.05;19.30;;;;;;;4.87;100.00;102342.38;10100592;28;20507;-71
2024/02/02 05:21:11;;;;;;;30.20;19.83;;;;;;;4.91;100.00;102332.72;10108028;28;20511;-71
2024/02/02 05:26:07;;;;;;;32.97;20.05;;;;;;;4.91;100.00;102317.28;10100569;28;20047;-71
2024/02/02 05:31:04;;;;;;;32.20;19.95;;;;;;;4.91;100.00;102338.13;10102668;28;20402;-71
2024/02/02 05:36:01;;;;;;;28.52;19.92;;;;;;;4.84;100.00;102308.47;10111870;28;20058;-71
2024/02/02 05:40:57;;;;;;;37.60;20.80;;;;;;;4.84;100.00;102284.88;10110904;28;20498;-70
2024/02/02 05:45:54;;;;;;;34.50;22.02;;;;;;;4.76;100.00;102277.16;10108685;28;20632;-72
2024/02/02 05:50:50;;;;;;;41.17;21.90;;;;;;;4.76;100.00;102266.31;10103571;28;20059;-69
2024/02/02 05:55:47;;;;;;;31.73;21.92;;;;;;;4.82;100.00;102270.75;10102209;28;20054;-69
2024/02/02 06:00:44;;;;;;;38.28;23.58;;;;;;;4.83;100.00;102291.38;10102303;28;20530;-72
2024/02/02 06:05:41;;;;;;;31.85;22.48;;;;;;;4.82;100.00;102287.00;10106674;28;20490;-72
2024/02/02 06:10:40;;;;;;;37.95;22.17;;;;;;;4.85;100.00;102274.88;10110944;28;20043;-72
2024/02/02 06:15:36;;;;;;;33.40;23.52;;;;;;;4.84;100.00;102284.88;10100652;28;20050;-71
2024/02/02 06:20:33;;;;;;;35.58;23.00;;;;;;;4.80;100.00;102281.03;10104810;28;20057;-72
2024/02/02 06:25:30;;;;;;;33.53;24.05;;;;;;;4.87;100.00;102266.50;10104841;28;20498;-71
2024/02/02 06:30:26;;;;;;;37.50;25.77;;;;;;;4.84;100.00;102262.38;10095635;28;20066;-71
2024/02/02 06:35:23;;;;;;;38.03;24.08;;;;;;;4.83;100.00;102250.72;10107513;28;20138;-72
2024/02/02 06:40:19;;;;;;;31.85;22.98;;;;;;;4.87;100.00;102250.22;10102545;28;20093;-71
2024/02/02 06:45:16;;;;;;;33.22;24.27;;;;;;;4.89;100.00;102250.81;10108914;28;20059;-73
2024/02/02 06:50:13;;;;;;;36.97;24.25;;;;;;;4.90;100.00;102244.31;10094431;28;20101;-72
2024/02/02 06:55:11;;;;;;;34.15;24.95;;;;;;;4.89;100.00;102237.28;10102824;28;20061;-73
2024/02/02 07:00:13;;;;;;;41.75;25.98;;;;;;;4.90;100.00;102228.06;10114443;28;20047;-73
2024/02/02 07:05:13;;;;;;;;;;;;;;;4.91;100.00;102229.72;10104288;28;20047;-72
2024/02/02 07:10:15;;;;;;;48.72;27.60;;;;;;;4.88;100.00;102213.97;10113707;28;20615;-72
2024/02/02 07:15:19;;;;;;;36.92;26.20;;;;;;;4.96;100.00;102213.53;10104682;28;20115;-71
2024/02/02 07:20:38;;;;;;;35.85;24.58;;;;;;;4.98;100.00;102233.09;10093474;28;20047;-71
2024/02/02 07:25:38;;;;;;;39.80;26.05;;;;;;;4.94;100.00;102207.53;10096578;28;20043;-72
2024/02/02 07:30:45;;;;;;;35.83;24.73;;;;;;;4.92;100.00;102198.81;10099823;28;20078;-71
2024/02/02 07:35:41;;;;;;;31.05;24.73;;;;;;;4.97;100.00;102191.63;10102428;28;20038;-71
2024/02/02 07:41:04;;;;;;;42.38;26.42;;;;;;;4.95;100.00;102185.63;10109212;28;20105;-70
2024/02/02 07:46:01;;;;;;;39.10;23.73;;;;;;;4.97;100.00;102179.97;10106236;28;20130;-73
2024/02/02 07:51:04;;;;;;;33.40;24.20;;;;;;;5.01;100.00;102191.94;10098237;28;20058;-72
2024/02/02 07:56:01;;;;;;;41.85;25.25;;;;;;;5.02;100.00;102185.47;10090604;28;20139;-73
2024/02/02 08:00:58;;;;;;;36.90;24.85;;;;;;;4.99;100.00;102172.38;10101069;28;20934;-73
2024/02/02 08:05:54;;;;;;;38.45;24.15;;;;;;;4.99;100.00;102177.81;10106130;28;20047;-70
2024/02/02 08:10:51;;;;;;;37.33;24.58;;;;;;;4.90;100.00;102174.69;10106596;28;20054;-70
2024/02/02 08:15:48;;;;;;;37.58;26.10;;;;;;;4.85;100.00;102170.00;10112245;28;20554;-69
2024/02/02 08:20:46;;;;;;;39.22;25.48;;;;;;;4.70;100.00;102167.00;10105476;28;20050;-70
2024/02/02 08:25:43;;;;;;;44.50;25.05;;;;;;;4.60;100.00;102147.88;10110813;28;20043;-71
2024/02/02 08:30:39;;;;;;;56.90;27.00;;;;;;;4.52;100.00;102134.69;10110711;28;20391;-72
2024/02/02 08:35:36;;;;;;;38.55;26.15;;;;;;;4.50;100.00;102107.03;10102871;28;20039;-71
2024/02/02 08:40:43;;;;;;;41.25;26.10;;;;;;;4.58;100.00;102090.41;10100314;28;20344;-71
2024/02/02 08:45:42;;;;;;;42.13;26.23;;;;;;;4.53;100.00;102098.44;10103334;28;20126;-72
2024/02/02 08:50:40;;;;;;;38.45;24.52;;;;;;;4.58;100.00;102079.56;10095268;28;20499;-72
2024/02/02 08:55:44;;;;;;;40.15;24.83;;;;;;;4.57;100.00;102088.75;10105926;28;20113;-70
2024/02/02 09:00:41;;;;;;;38.30;24.40;;;;;;;4.53;100.00;102074.88;10107253;28;20051;-70
2024/02/02 09:05:51;;;;;;;38.72;25.95;;;;;;;4.54;100.00;102062.16;10117645;28;20050;-70
2024/02/02 09:10:57;;;;;;;39.35;24.92;;;;;;;4.59;100.00;102049.50;10103841;28;20094;-71
2024/02/02 09:15:53;;;;;;;31.60;23.67;;;;;;;4.66;100.00;102059.38;10114816;28;20046;-71
2024/02/02 09:20:50;;;;;;;41.90;23.83;;;;;;;4.71;100.00;102035.06;10104954;28;20102;-71
2024/02/02 09:25:47;;;;;;;53.67;24.25;;;;;;;4.82;100.00;102037.69;10107391;28;20486;-70
2024/02/02 09:30:46;;;;;;;36.30;22.98;;;;;;;4.84;100.00;102035.56;10117997;28;20077;-70
2024/02/02 09:35:53;;;;;;;36.72;22.77;;;;;;;4.90;100.00;102027.50;10097968;28;20094;-71
2024/02/02 09:41:01;;;;;;;34.28;21.38;;;;;;;4.93;100.00;102035.16;10107008;28;20694;-71
2024/02/02 09:46:16;;;;;;;43.30;23.08;;;;;;;4.98;100.00;102024.38;10105179;28;20034;-71
2024/02/02 09:51:40;;;;;;;34.65;22.23;;;;;;;5.06;100.00;102034.81;10105521;28;20712;-70
2024/02/02 09:56:47;;;;;;;42.65;23.00;;;;;;;5.07;100.00;102028.31;10106545;28;20109;-71
2024/02/02 10:02:17;;;;;;;32.88;24.17;;;;;;;5.04;100.00;102018.78;10111986;28;20050;-70
2024/02/02 10:07:41;;;;;;;39.92;23.48;;;;;;;5.12;100.00;102038.41;10107930;28;20059;-72
2024/02/02 10:13:10;;;;;;;34.80;23.67;;;;;;;5.29;100.00;102020.22;10104425;28;20544;-72
2024/02/02 10:18:19;;;;;;;38.75;21.88;;;;;;;5.38;100.00;102017.88;10109873;28;20507;-71
2024/02/02 10:23:47;;;;;;;34.80;22.55;;;;;;;5.55;100.00;102020.56;10105419;28;20466;-71
2024/02/02 10:29:05;;;;;;;33.75;22.10;;;;;;;5.52;100.00;102024.59;10107612;28;20050;-70
2024/02/02 10:34:11;;;;;;;28.92;22.38;;;;;;;5.61;100.00;102023.06;10101191;28;20418;-71
2024/02/02 10:39:45;;;;;;;33.10;21.73;;;;;;;5.54;100.00;102027.88;10099962;28;20047;-75
2024/02/02 10:45:19;;;;;;;33.45;22.30;;;;;;;5.55;100.00;102029.53;10099787;28;20043;-71
2024/02/02 10:50:21;;;;;;;26.30;20.70;;;;;;;5.55;100.00;102029.53;10106238;28;20133;-72
2024/02/02 10:55:43;;;;;;;35.08;21.30;;;;;;;5.62;100.00;102035.59;10104326;28;20046;-72
2024/02/02 11:00:48;;;;;;;32.47;21.27;;;;;;;5.68;100.00;102050.03;10109665;28;20422;-73
2024/02/02 11:06:04;;;;;;;34.28;20.17;;;;;;;5.67;100.00;102021.25;10099472;28;20047;-72
2024/02/02 11:11:04;;;;;;;33.65;21.88;;;;;;;5.68;100.00;102001.19;10096968;28;20533;-71
2024/02/02 11:16:43;;;;;;;30.65;19.70;;;;;;;5.81;100.00;102018.97;10104242;28;20059;-71
2024/02/02 11:22:06;;;;;;;42.50;19.95;;;;;;;5.78;100.00;102016.75;10099609;28;20142;-71
2024/02/02 11:27:17;;;;;;;31.30;21.38;;;;;;;5.79;100.00;102018.41;10108564;28;20051;-69
2024/02/02 11:32:33;;;;;;;29.00;20.60;;;;;;;5.80;100.00;102017.31;10113606;28;20581;-69
2024/02/02 11:37:49;;;;;;;29.23;19.95;;;;;;;5.84;100.00;101980.47;10098576;28;20039;-73
2024/02/02 11:42:47;;;;;;;31.13;20.25;;;;;;;5.85;100.00;101979.41;10103372;28;20058;-73
2024/02/02 11:47:53;;;;;;;30.98;21.10;;;;;;;5.80;100.00;101960.31;10102337;28;20047;-73
2024/02/02 11:53:01;;;;;;;32.95;20.05;;;;;;;5.84;100.00;101959.56;10094820;28;20046;-73
2024/02/02 11:58:05;;;;;;;35.00;19.30;;;;;;;5.85;100.00;101961.22;10093272;28;20046;-71
2024/02/02 12:03:13;;;;;;;28.40;21.42;;;;;;;5.97;100.00;101955.66;10106309;28;20054;-71
2024/02/02 12:08:36;;;;;;;37.20;20.88;;;;;;;5.94;100.00;101945.31;10093586;28;20085;-71
2024/02/02 12:13:35;;;;;;;30.33;20.75;;;;;;;5.90;100.00;101955.03;10101227;28;20070;-71
2024/02/02 12:18:32;;;;;;;42.70;20.83;;;;;;;5.98;100.00;101946.44;10097209;28;20039;-73
2024/02/02 12:23:29;;;;;;;30.80;21.45;;;;;;;5.93;100.00;101932.78;10092707;28;20082;-72
2024/02/02 12:28:25;;;;;;;35.80;21.13;;;;;;;5.95;100.00;101914.38;10098033;28;20042;-70
2024/02/02 12:33:22;;;;;;;38.33;22.52;;;;;;;6.00;100.00;101906.28;10088685;28;20055;-71
2024/02/02 12:38:21;;;;;;;32.30;21.25;;;;;;;6.02;100.00;101904.13;10097083;28;20058;-73
2024/02/02 12:43:24;;;;;;;37.08;21.70;;;;;;;6.03;100.00;101894.06;10100674;28;20066;-71
2024/02/02 12:48:21;;;;;;;38.63;22.13;;;;;;;6.04;100.00;101899.25;10103299;28;20562;-71
2024/02/02 12:53:19;;;;;;;30.30;18.83;;;;;;;6.15;100.00;101896.63;10097464;28;20400;-72
2024/02/02 12:58:16;;;;;;;31.88;19.58;;;;;;;6.19;100.00;101898.56;10098686;28;20082;-72
2024/02/02 13:03:12;;;;;;;28.70;19.15;;;;;;;6.19;100.00;101895.03;10105671;28;20046;-69
2024/02/02 13:08:10;;;;;;;29.98;20.83;;;;;;;6.21;100.00;101882.00;10098756;28;20051;-72
2024/02/02 13:13:21;;;;;;;37.88;21.45;;;;;;;6.25;100.00;101885.84;10090216;28;20050;-71
2024/02/02 13:18:20;;;;;;;39.50;22.02;;;;;;;6.28;100.00;101874.47;10098715;28;20526;-72
2024/02/02 13:23:24;;;;;;;38.55;23.35;;;;;;;6.33;100.00;101855.47;10102482;28;20051;-72
2024/02/02 13:28:21;;;;;;;35.22;22.75;;;;;;;6.40;100.00;101845.19;10097138;28;20051;-73
2024/02/02 13:33:19;;;;;;;28.98;22.48;;;;;;;6.41;100.00;101841.41;10096595;28;20497;-73
2024/02/02 13:38:16;;;;;;;54.03;20.98;;;;;;;6.41;100.00;101830.53;10107144;28;20046;-72
2024/02/02 13:43:14;;;;;;;31.45;21.13;;;;;;;6.48;100.00;101825.69;10106032;28;20042;-71
2024/02/02 13:48:13;;;;;;;31.33;20.70;;;;;;;6.52;100.00;101788.78;10100808;28;20582;-71
2024/02/02 13:53:10;;;;;;;35.63;22.20;;;;;;;6.53;100.00;101801.25;10096759;28;20043;-72
2024/02/02 13:58:06;;;;;;;30.88;19.55;;;;;;;6.56;100.00;101783.59;10109893;28;20066;-72
2024/02/02 14:03:07;;;;;;;31.98;20.08;;;;;;;6.60;100.00;101783.91;10115023;28;20054;-73
2024/02/02 14:08:04;;;;;;;33.92;21.75;;;;;;;6.63;100.00;101762.44;10107441;28;21499;-73
2024/02/02 14:13:00;;;;;;;25.70;20.60;;;;;;;6.65;100.00;101765.72;10110091;28;20105;-72
2024/02/02 14:18:01;;;;;;;40.63;22.58;;;;;;;6.68;100.00;101758.94;10102100;28;20057;-72
2024/02/02 14:23:08;;;;;;;35.53;22.17;;;;;;;6.72;100.00;101744.53;10109987;28;20426;-72
2024/02/02 14:28:18;;;;;;;37.05;20.50;;;;;;;6.79;100.00;101749.72;10097877;28;20047;-72
2024/02/02 14:33:18;;;;;;;23.33;19.17;;;;;;;6.85;100.00;101747.88;10096962;28;20059;-73
2024/02/02 14:38:21;;;;;;;37.47;21.83;;;;;;;6.90;100.00;101739.72;10098191;28;20046;-73
2024/02/02 14:43:18;;;;;;;34.53;22.10;;;;;;;6.92;100.00;101738.34;10100490;28;20050;-74
2024/02/02 14:48:15;;;;;;;36.38;23.33;;;;;;;6.94;100.00;101736.19;10100618;28;20057;-71
2024/02/02 14:53:12;;;;;;;35.05;21.58;;;;;;;7.01;100.00;101759.56;10098006;28;20051;-71
2024/02/02 14:58:09;;;;;;;30.33;20.63;;;;;;;7.03;100.00;101760.13;10105403;28;20082;-70
2024/02/02 15:03:05;;;;;;;32.58;21.30;;;;;;;7.05;100.00;101769.66;10099193;28;20399;-71
2024/02/02 15:08:02;;;;;;;27.63;19.52;;;;;;;7.03;100.00;101781.88;10106477;28;20051;-72
2024/02/02 15:12:59;;;;;;;30.73;20.58;;;;;;;7.02;100.00;101753.06;10107968;28;20053;-73
2024/02/02 15:17:56;;;;;;;41.92;22.98;;;;;;;6.99;100.00;101742.72;10100947;28;20157;-72
2024/02/02 15:22:52;;;;;;;25.23;19.08;;;;;;;6.97;100.00;101753.88;10096840;28;20051;-71
2024/02/02 15:27:49;;;;;;;35.97;22.13;;;;;;;6.94;100.00;101746.25;10106574;28;20514;-72
2024/02/02 15:32:45;;;;;;;27.88;19.58;;;;;;;6.93;100.00;101728.28;10101878;28;20049;-71
2024/02/02 15:37:42;;;;;;;35.17;18.40;;;;;;;6.89;100.00;101717.16;10111294;28;20070;-71
2024/02/02 15:42:38;;;;;;;30.83;18.65;;;;;;;6.87;100.00;101708.44;10097746;28;20051;-74
2024/02/02 15:47:35;;;;;;;33.83;21.05;;;;;;;6.84;100.00;101700.81;10104448;28;20070;-71
2024/02/02 15:52:32;;;;;;;31.77;22.13;;;;;;;6.81;100.00;101692.38;10110886;28;20145;-70
2024/02/02 15:57:29;;;;;;;31.17;17.95;;;;;;;6.82;100.00;101685.84;10093528;28;20412;-70
2024/02/02 16:02:27;;;;;;;29.55;16.83;;;;;;;6.84;100.00;101681.78;10100725;28;20055;-73
2024/02/02 16:07:24;;;;;;;33.92;17.75;;;;;;;6.83;100.00;101655.69;10106911;28;20659;-72
2024/02/02 16:12:21;;;;;;;28.30;15.65;;;;;;;6.85;100.00;101674.47;10074723;28;20047;-74
2024/02/02 16:17:17;;;;;;;20.83;15.27;;;;;;;6.81;100.00;101649.72;10110200;28;20053;-72
2024/02/02 16:22:14;;;;;;;19.25;14.02;;;;;;;6.80;100.00;101634.50;10091099;28;20054;-72
2024/02/02 16:27:10;;;;;;;19.33;14.35;;;;;;;6.80;100.00;101631.78;10097319;28;20510;-73
2024/02/02 16:32:08;;;;;;;27.42;15.10;;;;;;;6.80;100.00;101620.06;10087291;28;20050;-72
2024/02/02 16:37:04;;;;;;;26.90;13.73;;;;;;;6.80;100.00;101601.88;10096727;28;20089;-72
2024/02/02 16:42:01;;;;;;;23.63;15.43;;;;;;;6.79;100.00;101586.63;10103231;28;20426;-72
2024/02/02 16:47:00;;;;;;;28.73;17.92;;;;;;;6.81;100.00;101579.03;10094102;28;20075;-71
2024/02/02 16:51:57;;;;;;;21.48;15.40;;;;;;;6.82;100.00;101563.53;10107111;28;20077;-73
2024/02/02 16:56:53;;;;;;;27.77;14.27;;;;;;;6.78;100.00;101557.84;10100871;28;20093;-73
2024/02/02 17:01:50;;;;;;;16.48;12.07;;;;;;;6.81;100.00;101567.34;10095228;28;20043;-72
2024/02/02 17:06:47;;;;;;;13.88;11.35;;;;;;;6.82;100.00;101553.47;10105175;28;20047;-72
2024/02/02 17:11:43;;;;;;;14.15;10.70;;;;;;;6.85;100.00;101549.41;10093395;28;20047;-73
2024/02/02 17:16:40;;;;;;;21.80;9.80;;;;;;;6.82;100.00;101550.75;10093819;28;20215;-75
2024/02/02 17:21:36;;;;;;;11.13;9.60;;;;;;;6.82;100.00;101547.22;10100748;28;20507;-72
2024/02/02 17:26:33;;;;;;;12.02;9.95;;;;;;;6.85;100.00;101563.81;10093119;28;20047;-72
2024/02/02 17:31:33;;;;;;;9.90;8.15;;;;;;;6.86;100.00;101570.88;10102683;28;20042;-73
2024/02/02 17:36:31;;;;;;;12.73;9.13;;;;;;;6.87;100.00;101558.94;10101290;28;20276;-74
2024/02/02 17:41:27;;;;;;;12.88;10.02;;;;;;;6.89;100.00;101556.75;10102947;28;20085;-75
2024/02/02 17:46:24;;;;;;;18.27;12.43;;;;;;;6.89;100.00;101554.03;10098009;28;20047;-75
2024/02/02 17:51:21;;;;;;;22.65;14.48;;;;;;;6.92;100.00;101564.34;10108607;28;20436;-73
2024/02/02 17:56:18;;;;;;;27.77;16.80;;;;;;;6.90;100.00;101566.53;10108126;28;20038;-72
2024/02/02 18:01:15;;;;;;;24.38;16.30;;;;;;;6.91;100.00;101573.59;10104716;28;20055;-74
2024/02/02 18:06:12;;;;;;;27.83;16.08;;;;;;;6.93;100.00;101565.97;10102693;28;20043;-74
2024/02/02 18:11:09;;;;;;;24.60;14.18;;;;;;;6.93;100.00;101573.31;10109793;28;20046;-74
2024/02/02 18:16:06;;;;;;;22.55;12.80;;;;;;;6.93;100.00;101565.97;10113729;28;20518;-75
2024/02/02 18:21:03;;;;;;;23.50;15.05;;;;;;;6.97;100.00;101566.25;10117475;28;20930;-75
2024/02/02 18:25:59;;;;;;;30.33;17.85;;;;;;;6.97;100.00;101570.88;10113143;28;20039;-74
2024/02/02 18:30:56;;;;;;;27.42;18.13;;;;;;;7.00;100.00;101554.03;10104405;28;20054;-76
2024/02/02 18:35:52;;;;;;;32.15;19.98;;;;;;;6.97;100.00;101560.00;10109375;28;20133;-75
2024/02/02 18:40:49;;;;;;;36.90;20.30;;;;;;;6.99;100.00;101541.53;10102123;28;20050;-75
2024/02/02 18:45:46;;;;;;;29.40;16.95;;;;;;;6.99;100.00;101576.88;10108107;28;20047;-76
2024/02/02 18:50:43;;;;;;;37.75;19.23;;;;;;;6.99;100.00;101555.13;10097562;28;20455;-76
2024/02/02 18:55:39;;;;;;;33.45;18.35;;;;;;;7.00;100.00;101556.75;10110579;28;20787;-75
2024/02/02 19:00:36;;;;;;;27.67;19.55;;;;;;;7.05;100.00;101562.16;10111740;28;20053;-76
2024/02/02 19:05:33;;;;;;;30.90;18.73;;;;;;;7.01;100.00;101550.19;10111691;28;20047;-76
2024/02/02 19:10:29;;;;;;;28.67;18.10;;;;;;;7.00;100.00;101543.16;10108508;28;20043;-76
2024/02/02 19:15:27;;;;;;;29.30;17.73;;;;;;;7.04;100.00;101538.78;10096919;28;20046;-77
2024/02/02 19:20:24;;;;;;;29.20;17.73;;;;;;;7.08;100.00;101545.31;10097755;28;20137;-74
2024/02/02 19:25:21;;;;;;;27.92;16.70;;;;;;;7.08;100.00;101542.59;10106514;28;22450;-75
2024/02/02 19:30:17;;;;;;;25.23;15.18;;;;;;;7.11;100.00;101547.47;10116011;28;20054;-74
2024/02/02 19:35:14;;;;;;;27.65;15.82;;;;;;;7.15;100.00;101540.41;10102101;28;20994;-75
2024/02/02 19:40:12;;;;;;;22.95;16.80;;;;;;;7.18;100.00;101539.84;10106401;28;20066;-73
2024/02/02 19:45:08;;;;;;;26.95;16.45;;;;;;;7.21;100.00;101533.84;10111169;28;20054;-73
2024/02/02 19:50:05;;;;;;;24.15;16.05;;;;;;;7.26;100.00;101542.00;10109637;28;20051;-74
2024/02/02 19:55:03;;;;;;;30.85;17.63;;;;;;;7.26;100.00;101525.69;10105792;28;20487;-75
2024/02/02 20:00:02;;;;;;;27.88;16.65;;;;;;;7.34;100.00;101536.00;10099725;28;20149;-75
2024/02/02 20:04:58;;;;;;;29.27;16.63;;;;;;;7.36;100.00;101520.22;10106862;28;20108;-75
2024/02/02 20:09:55;;;;;;;28.65;18.80;;;;;;;7.41;100.00;101524.84;10103198;28;20470;-74
2024/02/02 20:14:51;;;;;;;29.40;19.05;;;;;;;7.43;100.00;101535.47;10100809;28;20042;-75
2024/02/02 20:19:48;;;;;;;32.65;21.05;;;;;;;7.46;100.00;101524.00;10104927;28;20043;-74
2024/02/02 20:24:45;;;;;;;32.67;22.80;;;;;;;7.47;100.00;101531.06;10096547;28;20046;-74
2024/02/02 20:29:42;;;;;;;30.55;20.65;;;;;;;7.50;100.00;101516.94;10113260;28;20118;-74
2024/02/02 20:34:39;;;;;;;24.30;20.40;;;;;;;7.54;100.00;101516.09;10098334;28;20524;-72
2024/02/02 20:39:36;;;;;;;25.55;21.10;;;;;;;7.56;100.00;101518.53;10107053;28;20227;-73
2024/02/02 20:44:32;;;;;;;25.67;21.70;;;;;;;7.55;100.00;101522.34;10092669;28;20502;-73
2024/02/02 20:49:29;;;;;;;28.00;16.60;;;;;;;7.62;100.00;101528.31;10103990;28;20043;-74
2024/02/02 20:54:26;;;;;;;23.63;18.33;;;;;;;7.63;100.00;101538.09;10098556;28;20098;-74
2024/02/02 20:59:22;;;;;;;29.65;18.02;;;;;;;7.70;100.00;101544.06;10089738;28;20077;-74
2024/02/02 21:04:19;;;;;;;23.33;17.90;;;;;;;7.73;100.00;101540.78;10101885;28;20114;-73
2024/02/02 21:09:16;;;;;;;17.92;16.05;;;;;;;7.77;100.00;101558.22;10106935;28;20050;-75
2024/02/02 21:14:12;;;;;;;21.90;17.42;;;;;;;7.77;100.00;101555.47;10102580;28;20042;-74
2024/02/02 21:19:09;;;;;;;20.00;17.20;;;;;;;7.82;100.00;101567.41;10103634;28;20039;-74
2024/02/02 21:24:06;;;;;;;21.52;16.42;;;;;;;7.83;100.00;101579.97;10108841;28;20042;-75
2024/02/02 21:29:02;;;;;;;24.15;17.85;;;;;;;7.84;100.00;101562.53;10103565;28;20534;-72
2024/02/02 21:33:59;;;;;;;25.23;19.83;;;;;;;7.80;100.00;101573.97;10100915;28;20479;-75
2024/02/02 21:38:57;;;;;;;25.08;19.20;;;;;;;7.87;100.00;101572.88;10103225;28;20049;-74
2024/02/02 21:43:53;;;;;;;20.65;17.98;;;;;;;7.90;100.00;101588.66;10102097;28;20054;-74
2024/02/02 21:48:50;;;;;;;27.90;18.67;;;;;;;7.91;100.00;101590.25;10105004;28;20102;-75
2024/02/02 21:53:47;;;;;;;24.20;18.48;;;;;;;7.92;100.00;101594.63;10103647;28;20073;-75
2024/02/02 21:58:43;;;;;;;22.83;19.05;;;;;;;7.96;100.00;101614.75;10110310;28;20118;-74
2024/02/02 22:03:40;;;;;;;20.38;17.23;;;;;;;7.98;100.00;101593.50;10103918;28;20047;-74
2024/02/02 22:08:36;;;;;;;22.10;18.45;;;;;;;8.02;100.00;101614.44;10113882;28;20086;-74
2024/02/02 22:13:35;;;;;;;18.92;17.15;;;;;;;8.06;100.00;101628.34;10100315;28;20113;-75
2024/02/02 22:18:32;;;;;;;20.92;18.30;;;;;;;8.10;100.00;101653.94;10110966;28;20109;-75
2024/02/02 22:23:28;;;;;;;20.42;18.38;;;;;;;8.09;100.00;101641.38;10104257;28;20521;-75
2024/02/02 22:28:25;;;;;;;20.25;18.10;;;;;;;8.12;100.00;101657.19;10104383;28;20047;-74